Time;durP1;ratioP1;P1;durP2;ratioP2;P2;SDS_P1;SDS_P2;PMS_P1;PMS_P2;Temp;Humidity;BMP_temperature;BMP_pressure;BME280_temperature;BME280_humidity;BME280_pressure;Samples;Min_cycle;Max_cycle;Signal;HPM_P1;HPM_P2
2021/04/30 00:00:07;;;;;;;;;24.80;21.80;;;;;19.60;40.75;97803.50;6285485;27;127087;-64
2021/04/30 00:03:09;;;;;;;;;25.80;23.00;;;;;19.63;40.62;97811.09;6285747;27;125175;-64
2021/04/30 00:06:14;;;;;;;;;26.00;22.00;;;;;19.69;40.74;97800.88;6282377;27;123722;-64
2021/04/30 00:09:17;;;;;;;;;23.80;21.40;;;;;19.76;40.18;97806.72;6259974;27;125576;-64
2021/04/30 00:12:20;;;;;;;;;22.75;20.75;;;;;19.80;40.28;97824.13;6260642;27;125983;-64
2021/04/30 00:15:23;;;;;;;;;23.00;22.00;;;;;19.72;40.08;97813.94;6276923;27;126334;-64
2021/04/30 00:18:25;;;;;;;;;22.00;20.00;;;;;19.84;40.19;97830.63;6262712;27;125972;-65
2021/04/30 00:21:29;;;;;;;;;24.00;21.60;;;;;19.86;40.17;97829.19;6264477;27;125212;-64
2021/04/30 00:24:32;;;;;;;;;23.25;21.50;;;;;19.94;40.35;97832.31;6264226;27;124499;-64
2021/04/30 00:27:37;;;;;;;;;24.00;21.40;;;;;20.02;40.18;97834.31;6262493;27;123781;-64
2021/04/30 00:30:42;;;;;;;;;21.00;20.40;;;;;19.90;40.92;97821.16;6263206;27;126400;-64
2021/04/30 00:33:44;;;;;;;;;24.00;21.00;;;;;19.72;41.53;97813.94;6281594;27;125715;-64
2021/04/30 00:36:47;;;;;;;;;26.00;24.00;;;;;19.56;41.59;97827.09;6263096;27;126630;-64
2021/04/30 00:39:49;;;;;;;;;24.40;22.40;;;;;19.43;41.73;97816.97;6271686;27;126401;-64
2021/04/30 00:42:53;;;;;;;;;25.00;22.00;;;;;19.40;41.91;97820.31;6287205;27;126442;-64
2021/04/30 00:45:56;;;;;;;;;27.00;25.00;;;;;19.36;42.05;97836.50;6289375;27;124790;-64
2021/04/30 00:49:01;;;;;;;;;26.00;21.00;;;;;19.30;42.04;97845.13;6289019;27;125198;-64
2021/04/30 00:52:03;;;;;;;;;28.00;25.60;;;;;19.34;41.83;97848.88;6288642;27;125896;-64
2021/04/30 00:55:08;;;;;;;;;26.00;23.40;;;;;19.29;42.18;97859.88;6288987;27;124659;-64
2021/04/30 00:58:11;;;;;;;;;27.00;25.25;;;;;19.34;41.83;97863.34;6289015;27;125778;-64
2021/04/30 01:01:14;;;;;;;;;23.20;23.00;;;;;19.43;41.52;97877.91;6289342;27;125199;-64
2021/04/30 01:04:16;;;;;;;;;25.75;23.50;;;;;19.41;41.45;97891.06;6288135;27;124738;-64
2021/04/30 01:07:19;;;;;;;;;25.00;24.00;;;;;19.24;42.04;97909.16;6270267;27;125405;-64
2021/04/30 01:10:21;;;;;;;;;28.50;25.00;;;;;19.16;42.70;97910.66;6263845;27;125233;-64
2021/04/30 01:13:24;;;;;;;;;25.00;24.00;;;;;18.79;44.17;97908.03;6262549;27;125033;-64
2021/04/30 01:16:27;;;;;;;;;29.20;26.00;;;;;18.64;45.04;97917.28;6263158;27;126122;-64
2021/04/30 01:19:30;;;;;;;;;31.60;29.60;;;;;18.56;46.70;97931.63;6274907;27;124310;-64
2021/04/30 01:22:37;;;;;;;;;32.60;30.00;;;;;18.54;47.54;97929.19;6279611;27;126127;-64
2021/04/30 01:25:39;;;;;;;;;34.00;30.25;;;;;18.39;49.41;97929.38;6263474;27;123515;-64
2021/04/30 01:28:41;;;;;;;;;34.00;32.00;;;;;18.25;50.72;97947.59;6285928;27;126533;-64
2021/04/30 01:31:45;;;;;;;;;36.80;32.00;;;;;18.14;51.42;97927.00;6277678;27;124022;-64
2021/04/30 01:34:47;;;;;;;;;37.40;32.00;;;;;18.10;52.09;97945.88;6263137;27;124762;-64
2021/04/30 01:37:52;;;;;;;;;41.00;34.40;;;;;18.11;52.18;97955.69;6244813;27;124337;-64
2021/04/30 01:40:55;;;;;;;;;38.75;32.00;;;;;18.01;53.06;97944.91;6277648;27;124966;-64
2021/04/30 01:43:57;;;;;;;;;36.00;31.00;;;;;18.16;53.14;97952.91;6285076;27;126251;-64
2021/04/30 01:47:00;;;;;;;;;39.00;33.00;;;;;18.21;53.55;97948.47;6288007;27;125325;-64
2021/04/30 01:50:03;;;;;;;;;38.25;32.00;;;;;18.30;53.46;97946.69;6282564;27;125738;-64
2021/04/30 01:53:08;;;;;;;;;33.75;29.00;;;;;18.30;53.77;97941.25;6264103;27;124060;-64
2021/04/30 01:56:12;;;;;;;;;30.00;29.00;;;;;18.22;54.01;97917.38;6286313;27;125435;-64
2021/04/30 01:59:14;;;;;;;;;29.00;26.00;;;;;18.43;53.64;97935.03;6286566;27;124819;-64
2021/04/30 02:02:17;;;;;;;;;28.40;25.40;;;;;18.37;54.19;97928.88;6281955;27;126800;-64
2021/04/30 02:05:21;;;;;;;;;24.00;22.00;;;;;18.45;53.66;97927.38;6271202;27;126920;-64
2021/04/30 02:08:25;;;;;;;;;25.00;22.00;;;;;18.46;53.61;97908.00;6262278;27;124941;-64
2021/04/30 02:11:27;;;;;;;;;27.25;22.25;;;;;18.57;53.32;97908.66;6262261;27;125908;-64
2021/04/30 02:14:30;;;;;;;;;23.00;19.60;;;;;18.60;53.03;97908.91;6277699;27;126339;-64
2021/04/30 02:17:32;;;;;;;;;21.00;18.40;;;;;18.44;53.15;97891.09;6277955;27;126908;-64
2021/04/30 02:20:35;;;;;;;;;22.20;19.00;;;;;18.64;53.22;97905.56;6261803;27;126440;-64
2021/04/30 02:23:38;;;;;;;;;22.80;21.00;;;;;18.60;53.24;97913.53;6262078;27;126162;-64
2021/04/30 02:26:44;;;;;;;;;22.00;20.00;;;;;18.67;52.93;97924.09;6272380;27;124725;-64
2021/04/30 02:29:46;;;;;;;;;22.40;19.00;;;;;18.67;53.12;97926.81;6262074;27;126268;-64
2021/04/30 02:32:51;;;;;;;;;20.00;18.00;;;;;18.72;53.15;97926.72;6285802;27;126406;-65
2021/04/30 02:35:53;;;;;;;;;20.20;19.20;;;;;18.78;53.02;97928.25;6285415;27;123845;-64
2021/04/30 02:38:57;;;;;;;;;19.25;18.25;;;;;18.83;52.91;97934.47;6286331;27;126454;-64
2021/04/30 02:41:59;;;;;;;;;21.20;18.80;;;;;18.83;53.16;97939.91;6279995;27;125765;-64
2021/04/30 02:45:03;;;;;;;;;21.20;18.20;;;;;18.87;53.00;97943.66;6277072;27;127364;-64
2021/04/30 02:48:11;;;;;;;;;19.00;18.00;;;;;18.87;53.19;97934.66;6261612;27;126085;-63
2021/04/30 02:51:14;;;;;;;;;22.00;20.00;;;;;18.85;53.29;97932.25;6261464;27;124789;-64
2021/04/30 02:54:17;;;;;;;;;22.00;21.00;;;;;18.85;53.24;97936.91;6260281;27;125114;-65
2021/04/30 02:57:20;;;;;;;;;17.40;16.00;;;;;18.87;52.96;97926.47;6275226;27;125020;-63
2021/04/30 03:00:23;;;;;;;;;17.00;17.00;;;;;18.87;53.10;97942.84;6264265;27;125994;-64
2021/04/30 03:03:25;;;;;;;;;17.00;15.00;;;;;18.87;53.16;97940.13;6278328;27;126693;-63
2021/04/30 03:06:28;;;;;;;;;16.50;15.50;;;;;18.81;53.29;97944.88;6286767;27;124467;-63
2021/04/30 03:09:31;;;;;;;;;15.00;14.00;;;;;18.88;52.92;97939.84;6285339;27;126373;-64
2021/04/30 03:12:33;;;;;;;;;15.60;14.60;;;;;18.80;52.80;97913.22;6284799;27;125137;-63
2021/04/30 03:15:35;;;;;;;;;16.40;15.00;;;;;18.97;52.75;97924.38;6267494;27;124034;-63
2021/04/30 03:18:38;;;;;;;;;19.00;17.00;;;;;18.94;52.93;97946.03;6278429;27;127015;-64
2021/04/30 03:21:40;;;;;;;;;20.50;18.00;;;;;18.99;52.76;97937.75;6269395;27;126701;-64
2021/04/30 03:24:43;;;;;;;;;21.40;18.40;;;;;19.03;52.56;97949.69;6276274;27;124943;-64
2021/04/30 03:27:46;;;;;;;;;17.60;16.60;;;;;19.00;52.43;97937.47;6269756;27;126233;-65
2021/04/30 03:30:48;;;;;;;;;18.00;16.00;;;;;19.11;52.54;97953.69;6270352;27;125612;-65
2021/04/30 03:33:50;;;;;;;;;19.60;17.00;;;;;19.09;52.73;97956.69;6267227;27;125127;-65
2021/04/30 03:36:53;;;;;;;;;17.00;16.00;;;;;19.14;52.44;97959.34;6275444;27;126393;-65
2021/04/30 03:39:56;;;;;;;;;19.20;17.80;;;;;19.09;52.73;97964.09;6274269;27;125056;-65
2021/04/30 03:42:58;;;;;;;;;18.20;16.80;;;;;19.00;53.17;97962.03;6277840;27;125409;-65
2021/04/30 03:46:00;;;;;;;;;20.00;18.60;;;;;19.03;53.05;97980.56;6282862;27;125938;-64
2021/04/30 03:49:05;;;;;;;;;20.40;19.00;;;;;18.97;53.33;97972.72;6282535;27;126607;-64
2021/04/30 03:52:17;;;;;;;;;21.20;19.60;;;;;18.93;53.42;97977.16;6288176;27;124853;-64
2021/04/30 03:55:20;;;;;;;;;23.00;19.00;;;;;18.93;53.43;97975.25;6288481;27;125017;-64
2021/04/30 03:58:22;;;;;;;;;20.60;19.00;;;;;18.95;53.42;97983.97;6275127;27;126323;-64
2021/04/30 04:01:24;;;;;;;;;23.60;21.60;;;;;18.98;53.40;97985.28;6287291;27;124506;-63
2021/04/30 04:04:26;;;;;;;;;23.00;21.00;;;;;18.96;53.25;97993.75;6289940;27;124807;-63
2021/04/30 04:07:29;;;;;;;;;21.00;20.00;;;;;18.95;53.60;97986.72;6289382;27;127096;-64
2021/04/30 04:10:32;;;;;;;;;22.75;21.00;;;;;19.00;53.57;97996.75;6278376;27;126521;-64
2021/04/30 04:13:36;;;;;;;;;21.40;19.00;;;;;19.06;53.44;97997.47;6284839;27;126533;-63
2021/04/30 04:16:38;;;;;;;;;23.50;21.50;;;;;19.03;53.48;98002.41;6271750;27;125714;-64
2021/04/30 04:19:41;;;;;;;;;20.00;18.40;;;;;19.03;53.46;98005.13;6275621;27;124575;-64
2021/04/30 04:22:43;;;;;;;;;19.00;17.25;;;;;19.03;53.43;98009.78;6264311;27;126083;-64
2021/04/30 04:25:46;;;;;;;;;19.60;18.60;;;;;18.97;53.43;98006.31;6280114;27;126181;-63
2021/04/30 04:28:48;;;;;;;;;22.00;19.67;;;;;18.97;53.49;98011.78;6265449;27;125936;-64
2021/04/30 04:31:50;;;;;;;;;20.00;17.00;;;;;18.98;53.74;98024.34;6262679;27;126367;-63
2021/04/30 04:34:52;;;;;;;;;19.40;18.00;;;;;18.88;53.92;98016.31;6262541;27;125112;-63
2021/04/30 04:37:55;;;;;;;;;19.00;17.00;;;;;18.87;53.94;98022.03;6269875;27;126186;-64
2021/04/30 04:40:58;;;;;;;;;17.80;16.00;;;;;18.82;54.14;98028.41;6262931;27;124906;-63
2021/04/30 04:44:00;;;;;;;;;16.80;16.40;;;;;18.86;53.90;98031.38;6268751;27;125616;-63
2021/04/30 04:47:03;;;;;;;;;18.00;16.40;;;;;18.90;53.94;98029.66;6267466;27;125822;-63
2021/04/30 04:50:07;;;;;;;;;19.00;16.25;;;;;18.91;53.63;98031.31;6268523;27;127881;-63
2021/04/30 04:53:10;;;;;;;;;17.60;15.60;;;;;18.97;53.63;98032.81;6275178;27;124167;-64
2021/04/30 04:56:13;;;;;;;;;16.00;15.20;;;;;18.96;53.43;98036.69;6283437;27;126793;-63
2021/04/30 04:59:15;;;;;;;;;16.00;15.50;;;;;18.94;53.85;98036.16;6279342;27;124978;-65
2021/04/30 05:02:17;;;;;;;;;16.00;15.00;;;;;18.99;53.65;98047.81;6264903;27;126375;-65
2021/04/30 05:05:20;;;;;;;;;15.00;15.00;;;;;19.00;53.58;98048.63;6287974;27;126979;-64
2021/04/30 05:08:22;;;;;;;;;17.50;14.00;;;;;19.01;53.42;98059.25;6271399;27;125198;-64
2021/04/30 05:11:25;;;;;;;;;15.00;14.00;;;;;19.02;53.66;98062.78;6288471;27;124522;-63
2021/04/30 05:14:28;;;;;;;;;15.00;13.00;;;;;19.02;53.51;98060.06;6263687;27;124882;-63
2021/04/30 05:17:43;;;;;;;;;16.00;14.00;;;;;18.93;54.05;98059.94;6263531;27;124739;-63
2021/04/30 05:20:45;;;;;;;;;14.20;14.00;;;;;18.94;53.58;98061.56;6261998;27;124855;-64
2021/04/30 05:23:47;;;;;;;;;15.80;15.00;;;;;18.97;53.61;98069.16;6282353;27;126758;-63
2021/04/30 05:26:50;;;;;;;;;14.60;13.60;;;;;19.07;53.25;98061.91;6282439;27;126851;-63
2021/04/30 05:29:52;;;;;;;;;17.00;15.00;;;;;18.99;53.71;98066.13;6279440;27;126438;-63
2021/04/30 05:32:54;;;;;;;;;15.00;14.00;;;;;19.01;53.67;98075.63;6274775;27;126516;-63
2021/04/30 05:35:57;;;;;;;;;15.00;14.00;;;;;18.98;54.16;98072.69;6274664;27;125182;-63
2021/04/30 05:38:59;;;;;;;;;13.25;13.00;;;;;19.03;53.91;98078.91;6277008;27;126766;-63
2021/04/30 05:42:03;;;;;;;;;13.00;12.00;;;;;18.94;54.03;98079.84;6276383;27;125305;-63
2021/04/30 05:45:07;;;;;;;;;17.00;15.00;;;;;18.92;54.15;98080.16;6260174;27;127197;-63
2021/04/30 05:48:10;;;;;;;;;16.40;13.00;;;;;19.00;53.99;98086.88;6261413;27;125207;-64
2021/04/30 05:51:12;;;;;;;;;14.80;12.20;;;;;19.06;53.67;98095.81;6262213;27;127786;-64
2021/04/30 05:54:14;;;;;;;;;14.00;13.00;;;;;19.15;53.67;98096.78;6262737;27;127714;-64
2021/04/30 05:57:17;;;;;;;;;14.60;13.60;;;;;19.16;53.47;98099.19;6278053;27;125489;-63
2021/04/30 06:00:20;;;;;;;;;15.00;13.00;;;;;19.06;53.77;98091.13;6262994;27;127104;-63
2021/04/30 06:03:23;;;;;;;;;17.00;13.40;;;;;19.24;53.64;98111.38;6262356;27;126321;-63
2021/04/30 06:06:25;;;;;;;;;14.00;13.00;;;;;19.27;53.24;98106.13;6262402;27;125329;-64
2021/04/30 06:09:27;;;;;;;;;15.00;13.00;;;;;19.30;53.09;98107.47;6262835;27;128983;-63
2021/04/30 06:12:31;;;;;;;;;15.00;14.00;;;;;19.32;53.15;98114.25;6261524;27;126374;-63
2021/04/30 06:15:33;;;;;;;;;14.80;13.80;;;;;19.47;52.78;98110.50;6262560;27;127252;-63
2021/04/30 06:18:35;;;;;;;;;16.80;14.00;;;;;19.57;52.44;98106.78;6271173;27;127457;-64
2021/04/30 06:21:38;;;;;;;;;18.00;16.00;;;;;19.62;52.56;98112.97;6286454;27;128051;-63
2021/04/30 06:24:41;;;;;;;;;16.00;15.00;;;;;19.64;52.47;98118.97;6286378;27;125157;-63
2021/04/30 06:27:44;;;;;;;;;20.00;17.50;;;;;19.76;52.47;98124.78;6286270;27;128217;-63
2021/04/30 06:30:46;;;;;;;;;18.60;16.60;;;;;19.76;51.50;98129.44;6286275;27;127303;-63
2021/04/30 06:33:49;;;;;;;;;20.00;18.50;;;;;19.78;51.50;98129.94;6287207;27;125028;-64
2021/04/30 06:36:53;;;;;;;;;19.40;17.00;;;;;19.74;51.29;98139.88;6285782;27;125172;-63
2021/04/30 06:39:55;;;;;;;;;20.40;19.40;;;;;19.76;51.19;98138.44;6286270;27;125875;-63
2021/04/30 06:42:58;;;;;;;;;18.50;17.00;;;;;19.82;51.05;98140.00;6286952;27;124194;-64
2021/04/30 06:46:00;;;;;;;;;18.00;16.40;;;;;19.87;51.27;98134.44;6287162;27;126413;-63
2021/04/30 06:49:03;;;;;;;;;20.60;19.00;;;;;19.89;50.99;98140.41;6274287;27;125820;-64
2021/04/30 06:52:05;;;;;;;;;18.00;17.60;;;;;19.95;50.63;98151.25;6260975;27;124993;-63
2021/04/30 06:55:09;;;;;;;;;23.50;21.00;;;;;20.13;50.52;98142.19;6261298;27;125039;-65
2021/04/30 06:58:17;;;;;;;;;19.50;19.50;;;;;20.20;49.95;98142.59;6261502;27;124606;-63
2021/04/30 07:01:19;;;;;;;;;17.60;17.00;;;;;20.34;49.13;98140.72;6261609;27;127931;-63
2021/04/30 07:04:22;;;;;;;;;19.40;19.40;;;;;20.40;48.60;98147.72;6260587;27;126445;-63
2021/04/30 07:07:24;;;;;;;;;19.80;18.20;;;;;20.43;47.53;98147.09;6261238;27;126094;-64
2021/04/30 07:10:26;;;;;;;;;21.60;20.00;;;;;20.66;47.30;98146.09;6261296;27;125023;-63
2021/04/30 07:13:29;;;;;;;;;22.20;20.00;;;;;20.66;46.72;98129.69;6276590;27;126597;-64
2021/04/30 07:16:32;;;;;;;;;24.40;21.80;;;;;21.01;45.73;98152.75;6261075;27;126776;-63
2021/04/30 07:19:34;;;;;;;;;22.60;21.00;;;;;21.34;44.59;98156.16;6260947;27;126196;-63
2021/04/30 07:22:36;;;;;;;;;22.40;20.00;;;;;21.67;44.24;98156.75;6260969;27;126582;-63
2021/04/30 07:25:39;;;;;;;;;23.20;22.00;;;;;22.03;43.19;98159.47;6275997;27;127438;-63
2021/04/30 07:28:42;;;;;;;;;24.00;21.00;;;;;22.14;42.43;98151.78;6260475;27;126176;-63
2021/04/30 07:31:44;;;;;;;;;24.20;23.20;;;;;22.23;42.10;98156.19;6260385;27;125268;-63
2021/04/30 07:35:07;;;;;;;;;25.00;22.00;;;;;22.54;41.04;98153.41;6260435;27;124983;-63
2021/04/30 07:38:10;;;;;;;;;24.00;23.00;;;;;22.83;40.40;98159.19;6260403;27;125098;-63
2021/04/30 07:41:13;;;;;;;;;21.80;20.00;;;;;22.98;39.25;98154.38;6276660;27;126779;-63
2021/04/30 07:44:16;;;;;;;;;22.67;21.00;;;;;23.04;39.24;98161.34;6284326;27;126230;-63
2021/04/30 07:47:31;;;;;;;;;23.00;21.00;;;;;23.14;38.65;98163.78;6283494;27;126110;-63
2021/04/30 07:50:34;;;;;;;;;19.40;17.80;;;;;23.37;37.97;98161.72;6278693;27;124870;-63
2021/04/30 07:53:37;;;;;;;;;17.00;17.00;;;;;23.50;37.12;98166.28;6279837;27;124842;-64
2021/04/30 07:56:39;;;;;;;;;20.00;17.75;;;;;23.66;36.86;98148.16;6262874;27;125505;-63
2021/04/30 07:59:42;;;;;;;;;18.00;18.00;;;;;23.70;36.65;98155.44;6286536;27;127878;-63
2021/04/30 08:02:44;;;;;;;;;17.00;17.00;;;;;23.67;36.07;98160.78;6270653;27;126102;-63
2021/04/30 08:05:47;;;;;;;;;19.60;18.40;;;;;23.66;37.07;98162.72;6284836;27;128919;-63
2021/04/30 08:08:49;;;;;;;;;22.00;19.20;;;;;23.56;36.66;98163.03;6278334;27;126374;-63
2021/04/30 08:11:51;;;;;;;;;18.75;17.50;;;;;23.41;36.28;98165.47;6273545;27;125161;-63
2021/04/30 08:14:55;;;;;;;;;18.00;17.00;;;;;23.27;36.42;98180.16;6257495;27;123415;-63
2021/04/30 08:17:58;;;;;;;;;17.00;15.20;;;;;23.45;37.15;98177.47;6271442;27;125032;-63
2021/04/30 08:21:00;;;;;;;;;16.20;15.20;;;;;23.51;36.51;98176.16;6268331;27;125212;-62
2021/04/30 08:24:03;;;;;;;;;18.00;16.40;;;;;23.59;37.34;98180.88;6270198;27;125002;-63
2021/04/30 08:27:05;;;;;;;;;17.40;16.40;;;;;23.45;36.10;98185.72;6270734;27;126130;-64
2021/04/30 08:30:10;;;;;;;;;19.00;17.00;;;;;23.27;35.99;98188.41;6272335;27;125819;-64
2021/04/30 08:33:12;;;;;;;;;19.40;17.00;;;;;23.07;36.60;98199.19;6268582;27;126187;-63
2021/04/30 08:36:14;;;;;;;;;16.80;16.80;;;;;22.82;36.98;98192.50;6273152;27;127448;-63
2021/04/30 08:39:16;;;;;;;;;19.40;18.40;;;;;22.79;36.72;98190.38;6281150;27;125994;-63
2021/04/30 08:42:20;;;;;;;;;17.40;16.00;;;;;22.55;37.50;98179.75;6270590;27;126453;-63
2021/04/30 08:45:23;;;;;;;;;19.00;17.40;;;;;22.70;37.67;98187.59;6278550;27;124216;-63
2021/04/30 08:48:25;;;;;;;;;16.00;15.75;;;;;22.67;37.40;98190.16;6268272;27;125237;-62
2021/04/30 08:51:27;;;;;;;;;17.00;15.40;;;;;22.66;37.28;98194.84;6262603;27;126154;-62
2021/04/30 08:54:29;;;;;;;;;18.00;16.00;;;;;22.61;37.64;98199.66;6283260;27;127759;-64
2021/04/30 08:57:32;;;;;;;;;16.20;15.00;;;;;22.43;37.28;98177.59;6262937;27;125019;-64
2021/04/30 09:00:35;;;;;;;;;14.60;13.00;;;;;22.64;37.15;98216.31;6274624;27;125301;-62
2021/04/30 09:03:38;;;;;;;;;14.00;13.00;;;;;22.46;35.21;98214.63;6287669;27;126789;-64
2021/04/30 09:06:42;;;;;;;;;14.00;13.00;;;;;22.29;34.62;98209.00;6281262;27;126213;-63
2021/04/30 09:10:01;;;;;;;;;12.00;11.40;;;;;22.13;34.62;98216.03;6271021;27;128059;-63
2021/04/30 09:13:06;;;;;;;;;12.00;11.40;;;;;22.24;35.04;98214.63;6285941;27;126187;-63
2021/04/30 09:16:09;;;;;;;;;10.00;10.00;;;;;22.41;35.67;98217.50;6285804;27;125404;-63
2021/04/30 09:19:11;;;;;;;;;12.00;11.00;;;;;22.62;34.91;98215.84;6271886;27;126938;-63
2021/04/30 09:22:14;;;;;;;;;12.00;11.00;;;;;22.89;34.57;98223.06;6271794;27;126668;-63
2021/04/30 09:25:21;;;;;;;;;11.00;11.00;;;;;22.93;34.22;98220.50;6262871;27;126678;-63
2021/04/30 09:28:23;;;;;;;;;13.50;10.00;;;;;22.86;33.43;98215.47;6263792;27;124358;-63
2021/04/30 09:31:37;;;;;;;;;13.00;12.25;;;;;22.91;34.27;98212.59;6264493;27;128039;-63
2021/04/30 09:34:42;;;;;;;;;15.00;14.00;;;;;23.09;34.08;98214.25;6262818;27;126100;-63
2021/04/30 09:37:44;;;;;;;;;12.25;12.25;;;;;23.73;34.31;98218.09;6262791;27;126049;-63
2021/04/30 09:40:48;;;;;;;;;12.00;11.80;;;;;24.12;33.50;98222.59;6277950;27;126216;-63
2021/04/30 09:43:51;;;;;;;;;14.60;14.00;;;;;24.14;32.89;98230.56;6277446;27;125828;-64
2021/04/30 09:46:54;;;;;;;;;18.40;15.40;;;;;24.29;32.42;98223.75;6284158;27;126355;-64
2021/04/30 09:49:58;;;;;;;;;14.00;14.00;;;;;24.55;32.39;98221.72;6259001;27;125060;-64
2021/04/30 09:53:03;;;;;;;;;15.00;14.00;;;;;24.82;31.91;98207.53;6266089;27;126004;-64
2021/04/30 09:56:06;;;;;;;;;14.20;13.00;;;;;25.11;31.76;98220.56;6283081;27;126153;-64
2021/04/30 09:59:08;;;;;;;;;14.00;14.00;;;;;25.56;30.79;98211.72;6261589;27;125127;-64
2021/04/30 10:02:18;;;;;;;;;13.00;12.80;;;;;25.92;29.88;98213.84;6263259;27;127329;-64
2021/04/30 10:05:22;;;;;;;;;12.60;12.00;;;;;26.06;29.13;98195.00;6277557;27;125971;-64
2021/04/30 10:08:41;;;;;;;;;13.00;12.50;;;;;26.37;28.38;98206.44;6259630;27;124566;-63
2021/04/30 10:11:43;;;;;;;;;13.00;13.00;;;;;26.48;28.38;98207.63;6283308;27;126361;-63
2021/04/30 10:14:45;;;;;;;;;12.80;11.00;;;;;26.46;27.03;98214.63;6272366;27;126592;-63
2021/04/30 10:17:54;;;;;;;;;14.80;13.20;;;;;26.52;27.62;98214.09;6274280;27;126442;-64
2021/04/30 10:20:57;;;;;;;;;15.00;13.00;;;;;26.52;26.71;98207.75;6292900;27;124737;-63
2021/04/30 10:24:00;;;;;;;;;11.00;10.00;;;;;26.27;26.33;98213.22;6300645;27;125224;-63
2021/04/30 10:27:02;;;;;;;;;10.00;9.50;;;;;26.18;25.99;98214.41;6274321;27;124630;-63
2021/04/30 10:30:18;;;;;;;;;11.00;10.00;;;;;26.56;25.99;98219.72;6268582;27;125122;-63
2021/04/30 10:33:28;;;;;;;;;12.00;12.00;;;;;26.70;26.81;98221.03;6270191;27;124631;-64
2021/04/30 10:36:35;;;;;;;;;12.00;11.00;;;;;26.81;27.21;98198.44;6284405;27;123867;-64
2021/04/30 10:39:38;;;;;;;;;12.00;11.80;;;;;26.95;26.11;98196.19;6284953;27;127736;-64
2021/04/30 10:42:44;;;;;;;;;10.00;9.00;;;;;27.13;25.46;98197.53;6283847;27;124957;-63
2021/04/30 10:46:08;;;;;;;;;10.80;10.80;;;;;27.15;24.60;98192.50;6277048;27;126534;-63
2021/04/30 10:49:17;;;;;;;;;11.00;10.40;;;;;26.89;25.09;98176.22;6262113;27;124914;-63
2021/04/30 10:52:19;;;;;;;;;10.00;10.00;;;;;27.16;25.61;98191.34;6262019;27;124762;-63
2021/04/30 10:55:22;;;;;;;;;11.00;9.00;;;;;27.23;23.75;98182.44;6284736;27;127795;-63
2021/04/30 10:58:34;;;;;;;;;11.00;10.60;;;;;27.00;24.05;98184.88;6260806;27;125091;-64
2021/04/30 11:01:37;;;;;;;;;11.00;11.00;;;;;27.31;23.57;98187.06;6257074;27;126403;-64
2021/04/30 11:04:40;;;;;;;;;12.00;12.00;;;;;27.13;23.85;98178.19;6265766;27;126394;-63
2021/04/30 11:07:46;;;;;;;;;10.60;10.00;;;;;27.09;23.96;98196.63;6263838;27;126374;-63
2021/04/30 11:10:50;;;;;;;;;11.00;11.00;;;;;27.27;24.30;98175.06;6276952;27;125861;-64
2021/04/30 11:14:26;;;;;;;;;11.20;11.00;;;;;27.38;23.96;98179.75;6269896;27;125801;-64
2021/04/30 11:17:46;;;;;;;;;10.00;10.00;;;;;27.19;24.22;98176.78;6267750;27;127049;-63
2021/04/30 11:21:15;;;;;;;;;12.60;10.60;;;;;27.35;24.38;98186.00;6260778;27;126659;-64
2021/04/30 11:24:40;;;;;;;;;10.00;9.80;;;;;27.49;24.00;98194.78;6246217;27;126874;-64
2021/04/30 11:27:55;;;;;;;;;10.67;10.67;;;;;27.33;22.89;98177.25;6266831;27;126234;-64
2021/04/30 11:30:59;;;;;;;;;11.00;11.00;;;;;27.31;22.92;98181.53;6270412;27;124802;-63
2021/04/30 11:34:20;;;;;;;;;8.50;8.00;;;;;27.35;23.25;98179.66;6259104;27;126073;-63
2021/04/30 11:37:25;;;;;;;;;9.00;9.00;;;;;27.55;23.13;98179.53;6260485;27;125209;-64
2021/04/30 11:40:27;;;;;;;;;9.00;9.00;;;;;27.63;23.37;98180.53;6283359;27;125868;-63
2021/04/30 11:43:30;;;;;;;;;8.60;8.00;;;;;27.53;23.34;98184.63;6279900;27;126971;-63
2021/04/30 11:46:32;;;;;;;;;9.25;8.00;;;;;27.47;22.58;98166.59;6262817;27;126968;-63
2021/04/30 11:49:39;;;;;;;;;7.00;6.00;;;;;27.57;23.12;98171.69;6283643;27;126263;-63
2021/04/30 11:52:44;;;;;;;;;8.00;8.00;;;;;27.73;22.81;98174.50;6263044;27;126451;-63
2021/04/30 11:55:47;;;;;;;;;8.60;8.40;;;;;27.72;22.85;98172.91;6283192;27;126851;-64
2021/04/30 11:58:50;;;;;;;;;8.00;8.00;;;;;28.01;22.87;98168.97;6285494;27;126299;-64
2021/04/30 12:01:57;;;;;;;;;9.00;9.00;;;;;27.93;22.18;98172.72;6260332;27;124525;-63
2021/04/30 12:04:59;;;;;;;;;8.20;8.20;;;;;27.93;22.13;98164.41;6258915;27;125990;-63
2021/04/30 12:08:15;;;;;;;;;9.00;8.50;;;;;27.88;22.01;98167.44;6258966;27;123890;-64
2021/04/30 12:11:23;;;;;;;;;11.25;10.00;;;;;27.70;22.21;98177.19;6260351;27;123662;-64
2021/04/30 12:14:25;;;;;;;;;9.00;8.00;;;;;27.66;22.64;98187.38;6262195;27;124938;-64
2021/04/30 12:17:34;;;;;;;;;9.00;9.00;;;;;27.68;23.13;98182.25;6266164;27;124022;-64
2021/04/30 12:20:37;;;;;;;;;9.75;9.75;;;;;27.55;21.73;98178.72;6277934;27;126857;-64
2021/04/30 12:23:49;;;;;;;;;8.00;7.00;;;;;27.79;22.37;98175.88;6275913;27;124638;-64
2021/04/30 12:26:52;;;;;;;;;9.00;8.00;;;;;27.71;21.98;98181.56;6274346;27;126482;-64
2021/04/30 12:29:55;;;;;;;;;8.00;8.00;;;;;27.77;21.43;98177.38;6288578;27;125195;-63
2021/04/30 12:32:59;;;;;;;;;8.00;8.00;;;;;27.82;21.14;98168.81;6267713;27;124852;-64
2021/04/30 12:36:19;;;;;;;;;7.40;7.00;;;;;27.90;21.67;98173.44;6282834;27;123356;-64
2021/04/30 12:39:28;;;;;;;;;8.00;7.00;;;;;28.02;21.85;98165.84;6272029;27;125931;-63
2021/04/30 12:42:45;;;;;;;;;6.00;6.00;;;;;28.17;22.23;98157.97;6267185;27;124745;-64
2021/04/30 12:45:47;;;;;;;;;8.00;7.00;;;;;28.22;21.39;98155.75;6281937;27;124466;-64
2021/04/30 12:48:51;;;;;;;;;12.60;12.00;;;;;28.11;21.76;98149.09;6267426;27;124701;-64
2021/04/30 12:51:55;;;;;;;;;6.00;6.00;;;;;28.17;21.34;98157.97;6266442;27;124704;-64
2021/04/30 12:54:58;;;;;;;;;8.00;8.00;;;;;28.08;21.00;98144.25;6286630;27;128033;-64
2021/04/30 12:58:03;;;;;;;;;8.00;8.00;;;;;27.99;21.26;98151.91;6264067;27;125978;-64
2021/04/30 13:01:06;;;;;;;;;8.40;7.00;;;;;28.08;22.19;98152.56;6264350;27;126416;-64
2021/04/30 13:04:10;;;;;;;;;8.50;8.00;;;;;28.17;21.27;98164.31;6278142;27;124227;-64
2021/04/30 13:07:13;;;;;;;;;7.00;7.00;;;;;28.13;21.05;98152.34;6289611;27;124984;-64
2021/04/30 13:10:24;;;;;;;;;9.00;8.00;;;;;28.26;21.08;98147.50;6289765;27;126850;-64
2021/04/30 13:13:26;;;;;;;;;8.50;8.00;;;;;28.31;21.24;98147.25;6288862;27;124866;-64
2021/04/30 13:16:37;;;;;;;;;8.00;8.00;;;;;28.36;21.17;98147.00;6277421;27;125222;-64
2021/04/30 13:19:39;;;;;;;;;6.00;6.00;;;;;28.42;20.58;98146.38;6273682;27;126036;-64
2021/04/30 13:22:59;;;;;;;;;7.00;7.00;;;;;28.29;21.03;98125.44;6281920;27;124784;-64
2021/04/30 13:26:25;;;;;;;;;7.60;7.00;;;;;28.20;20.85;98135.88;6276757;27;126694;-64
2021/04/30 13:29:29;;;;;;;;;8.67;7.00;;;;;28.32;20.66;98129.47;6282448;27;123705;-66
2021/04/30 13:32:32;;;;;;;;;7.00;7.00;;;;;28.50;21.32;98127.13;6245440;27;123398;-66
2021/04/30 13:35:34;;;;;;;;;9.00;8.00;;;;;28.57;20.90;98130.09;6265950;27;125769;-64
2021/04/30 13:38:37;;;;;;;;;8.40;8.40;;;;;28.66;20.42;98114.88;6287480;27;125179;-64
2021/04/30 13:41:40;;;;;;;;;7.00;7.00;;;;;28.79;20.93;98112.84;6288512;27;125091;-63
2021/04/30 13:44:50;;;;;;;;;8.20;7.60;;;;;28.84;19.62;98115.34;6272545;27;127106;-64
2021/04/30 13:47:54;;;;;;;;;7.20;6.60;;;;;28.72;19.71;98113.50;6259780;27;123546;-64
2021/04/30 13:50:56;;;;;;;;;6.25;6.00;;;;;28.58;20.18;98113.13;6261552;27;124960;-64
2021/04/30 13:53:59;;;;;;;;;9.00;8.00;;;;;28.44;20.39;98110.75;6261842;27;124230;-64
2021/04/30 13:57:02;;;;;;;;;7.00;7.00;;;;;28.46;20.32;98110.41;6283464;27;125469;-63
2021/04/30 14:00:07;;;;;;;;;8.00;8.00;;;;;28.41;20.24;98111.50;6274449;27;126209;-64